createdAt,value
2023-12-07T00:04:50.289Z,100.00
2023-12-07T00:09:55.981Z,100.00
2023-12-07T00:15:03.975Z,100.00
2023-12-07T00:20:10.029Z,100.00
2023-12-07T00:25:17.181Z,100.00
2023-12-07T00:30:22.906Z,100.00
2023-12-07T00:35:30.375Z,100.00
2023-12-07T00:40:38.229Z,100.00
2023-12-07T00:45:42.272Z,100.00
2023-12-07T00:50:46.705Z,100.00
2023-12-07T00:55:53.175Z,100.00
2023-12-07T01:00:59.966Z,100.00
2023-12-07T01:06:04.509Z,99.77
2023-12-07T01:11:11.097Z,100.00
2023-12-07T01:16:15.208Z,100.00
2023-12-07T01:21:19.344Z,100.00
2023-12-07T01:26:44.717Z,100.00
2023-12-07T01:31:48.985Z,100.00
2023-12-07T01:36:53.059Z,100.00
2023-12-07T01:41:58.528Z,99.61
2023-12-07T01:47:03.072Z,98.94
2023-12-07T01:52:08.869Z,100.00
2023-12-07T01:57:14.362Z,100.00
2023-12-07T02:02:18.611Z,99.16
2023-12-07T02:07:23.986Z,97.76
2023-12-07T02:12:30.966Z,98.09
2023-12-07T02:17:40.891Z,98.65
2023-12-07T02:22:50.002Z,98.45
2023-12-07T02:27:55.522Z,100.00
2023-12-07T02:32:59.944Z,100.00
2023-12-07T02:38:05.034Z,99.75
2023-12-07T02:43:11.107Z,98.65
2023-12-07T02:48:15.314Z,98.51
2023-12-07T02:53:19.269Z,96.40
2023-12-07T02:58:24.931Z,97.50
2023-12-07T03:03:29.025Z,99.46
2023-12-07T03:08:33.142Z,98.96
2023-12-07T03:13:38.666Z,99.48
2023-12-07T03:18:42.764Z,99.16
2023-12-07T03:23:46.908Z,97.84
2023-12-07T03:28:52.553Z,96.88
2023-12-07T03:33:57.105Z,98.47
2023-12-07T03:39:01.274Z,99.83
2023-12-07T03:44:07.116Z,100.00
2023-12-07T03:49:11.379Z,100.00
2023-12-07T03:54:15.491Z,100.00
2023-12-07T03:59:21.142Z,100.00
2023-12-07T04:04:25.278Z,100.00
2023-12-07T04:09:29.640Z,100.00
2023-12-07T04:14:35.006Z,100.00
2023-12-07T04:19:39.047Z,100.00
2023-12-07T04:24:43.148Z,99.78
2023-12-07T04:29:48.784Z,96.89
2023-12-07T04:34:54.034Z,98.17
2023-12-07T04:39:59.996Z,98.70
2023-12-07T04:45:06.161Z,99.76
2023-12-07T04:50:11.853Z,100.00
2023-12-07T04:55:16.662Z,100.00
2023-12-07T05:00:22.742Z,100.00
2023-12-07T05:05:27.518Z,100.00
2023-12-07T05:10:31.571Z,100.00
2023-12-07T05:15:37.148Z,100.00
2023-12-07T05:20:41.391Z,100.00
2023-12-07T05:25:46.163Z,100.00
2023-12-07T05:30:52.041Z,100.00
2023-12-07T05:35:56.121Z,100.00
2023-12-07T05:41:00.106Z,99.51
2023-12-07T05:46:05.717Z,99.07
2023-12-07T05:51:15.533Z,98.80
2023-12-07T05:56:22.083Z,98.20
2023-12-07T06:01:28.300Z,97.50
2023-12-07T06:06:32.569Z,98.08
2023-12-07T06:11:36.843Z,98.89
2023-12-07T06:16:43.256Z,99.49
2023-12-07T06:21:48.815Z,97.96
2023-12-07T06:26:53.372Z,99.53
2023-12-07T06:31:59.323Z,99.48
2023-12-07T06:37:03.754Z,97.34
2023-12-07T06:42:08.975Z,98.50
2023-12-07T06:47:14.563Z,97.53
2023-12-07T06:52:21.208Z,97.34
2023-12-07T06:57:25.567Z,96.33
2023-12-07T07:02:31.183Z,96.73
2023-12-07T07:07:35.188Z,95.40
2023-12-07T07:12:39.163Z,95.82
2023-12-07T07:17:44.580Z,96.76
2023-12-07T07:22:48.549Z,96.15
2023-12-07T07:27:55.923Z,96.46
2023-12-07T07:33:02.568Z,95.58
2023-12-07T07:38:06.561Z,96.57
2023-12-07T07:43:10.825Z,96.18
2023-12-07T07:48:16.310Z,95.68
2023-12-07T07:53:20.653Z,95.88
2023-12-07T07:58:24.651Z,96.74
2023-12-07T08:03:29.980Z,97.59
2023-12-07T08:08:34.156Z,98.08
2023-12-07T08:13:38.493Z,98.10
2023-12-07T08:18:44.939Z,97.12
2023-12-07T08:23:48.868Z,96.84
2023-12-07T08:28:55.619Z,96.01
2023-12-07T08:34:02.460Z,96.76
2023-12-07T08:39:10.702Z,94.13
2023-12-07T08:44:16.128Z,95.37
2023-12-07T08:49:21.693Z,95.99
2023-12-07T08:54:25.998Z,95.47
2023-12-07T08:59:30.066Z,94.51
2023-12-07T09:04:35.922Z,94.23
2023-12-07T09:09:40.980Z,92.78
2023-12-07T09:14:45.078Z,92.22
2023-12-07T09:19:50.481Z,92.52
2023-12-07T09:24:54.660Z,90.00
2023-12-07T09:29:58.860Z,88.01
2023-12-07T09:35:05.222Z,84.99
2023-12-07T09:40:11.655Z,84.53
2023-12-07T09:45:17.815Z,86.02
2023-12-07T09:50:24.608Z,88.17
2023-12-07T09:55:28.574Z,88.93
2023-12-07T10:00:34.525Z,90.41
2023-12-07T10:11:13.418Z,90.21
2023-12-07T10:16:20.827Z,90.65
2023-12-07T10:21:34.510Z,91.41
2023-12-07T10:26:41.098Z,89.88
2023-12-07T10:31:45.446Z,89.55
2023-12-07T10:36:50.517Z,89.47
2023-12-07T10:42:04.227Z,88.82
2023-12-07T10:47:12.265Z,88.33
2023-12-07T10:52:18.717Z,87.21
2023-12-07T10:57:24.852Z,85.45
2023-12-07T11:02:30.365Z,84.12
2023-12-07T11:07:44.268Z,83.96
2023-12-07T11:12:58.568Z,82.83
2023-12-07T11:18:05.617Z,83.50
2023-12-07T11:23:11.005Z,83.53
2023-12-07T11:28:17.761Z,84.36
2023-12-07T11:33:21.924Z,86.13
2023-12-07T11:38:26.075Z,86.03
2023-12-07T11:43:41.121Z,86.46
2023-12-07T11:48:50.861Z,88.20
2023-12-07T11:53:55.917Z,87.64
2023-12-07T11:59:02.070Z,85.13
2023-12-07T12:04:12.999Z,85.07
2023-12-07T12:09:23.594Z,85.44
2023-12-07T12:14:35.354Z,85.30
2023-12-07T12:19:39.569Z,84.64
2023-12-07T12:24:44.457Z,84.50
2023-12-07T12:29:51.877Z,84.05
2023-12-07T12:34:56.047Z,85.03
2023-12-07T12:40:04.278Z,85.72
2023-12-07T12:45:12.030Z,86.03
2023-12-07T12:50:35.440Z,86.58
2023-12-07T12:55:41.411Z,86.90
2023-12-07T13:00:50.022Z,87.19
2023-12-07T13:05:54.890Z,86.58
2023-12-07T13:10:58.989Z,83.43
2023-12-07T13:16:07.873Z,78.31
2023-12-07T13:21:13.173Z,77.52
2023-12-07T13:26:17.634Z,79.66
2023-12-07T13:31:22.986Z,82.40
2023-12-07T13:36:32.714Z,83.26
2023-12-07T13:41:36.775Z,84.22
2023-12-07T13:46:45.724Z,86.51
2023-12-07T13:51:50.303Z,84.42
2023-12-07T13:56:55.771Z,82.61
2023-12-07T14:02:01.227Z,83.35
2023-12-07T14:07:13.348Z,80.93
2023-12-07T14:12:17.801Z,80.07
2023-12-07T14:17:32.444Z,80.75
2023-12-07T14:22:42.363Z,83.13
2023-12-07T14:27:46.626Z,83.74
2023-12-07T14:32:54.379Z,86.87
2023-12-07T14:37:59.637Z,87.31
2023-12-07T14:43:04.925Z,87.22
2023-12-07T14:48:10.488Z,87.79
2023-12-07T14:53:15.981Z,85.01
2023-12-07T14:58:21.704Z,84.40
2023-12-07T15:03:27.480Z,80.75
2023-12-07T15:08:34.426Z,76.85
2023-12-07T15:13:39.472Z,75.68
2023-12-07T15:18:47.783Z,79.22
2023-12-07T15:23:52.351Z,81.25
2023-12-07T15:28:57.840Z,81.52
2023-12-07T15:34:05.072Z,80.34
2023-12-07T15:39:12.536Z,79.88
2023-12-07T15:44:22.627Z,79.60
2023-12-07T15:49:31.443Z,78.58
2023-12-07T15:54:39.918Z,78.52
2023-12-07T15:59:45.705Z,76.33
2023-12-07T16:04:53.771Z,76.99
2023-12-07T16:09:58.031Z,77.68
2023-12-07T16:15:02.315Z,78.49
2023-12-07T16:20:12.201Z,78.60
2023-12-07T16:25:22.600Z,79.55
2023-12-07T16:30:31.439Z,81.02
2023-12-07T16:35:39.792Z,81.32
2023-12-07T16:40:46.121Z,81.23
2023-12-07T16:45:50.180Z,81.72
2023-12-07T16:50:57.155Z,81.73
2023-12-07T16:56:01.482Z,81.78
2023-12-07T17:01:06.200Z,83.92
2023-12-07T17:06:12.490Z,84.21
2023-12-07T17:11:16.679Z,84.23
2023-12-07T17:16:23.182Z,83.87
2023-12-07T17:21:29.905Z,83.92
2023-12-07T17:26:39.465Z,83.47
2023-12-07T17:31:50.478Z,81.18
2023-12-07T17:36:56.155Z,77.76
2023-12-07T17:42:00.323Z,75.98
2023-12-07T17:47:04.629Z,76.58
2023-12-07T17:52:13.420Z,75.54
2023-12-07T17:57:17.972Z,73.63
2023-12-07T18:02:22.204Z,76.08
2023-12-07T18:07:28.074Z,77.13
2023-12-07T18:12:32.567Z,77.77
2023-12-07T18:17:36.742Z,78.44
2023-12-07T18:22:42.173Z,80.08
2023-12-07T18:27:48.364Z,80.02
2023-12-07T18:32:54.941Z,80.65
2023-12-07T18:38:01.852Z,80.86
2023-12-07T18:43:05.904Z,81.85
2023-12-07T18:48:10.683Z,80.73
2023-12-07T18:53:16.315Z,79.30
2023-12-07T18:58:22.638Z,80.04
2023-12-07T19:03:26.876Z,80.10
2023-12-07T19:08:32.564Z,81.30
2023-12-07T19:13:37.715Z,81.91
2023-12-07T19:18:41.902Z,82.75
2023-12-07T19:23:48.205Z,83.19
2023-12-07T19:28:52.457Z,82.17
2023-12-07T19:33:57.074Z,81.65
2023-12-07T19:39:02.758Z,82.63
2023-12-07T19:44:07.080Z,83.27
2023-12-07T19:49:12.070Z,82.92
2023-12-07T19:54:19.144Z,82.95
2023-12-07T19:59:24.389Z,84.21
2023-12-07T20:04:28.562Z,84.30
2023-12-07T20:09:34.104Z,84.13
2023-12-07T20:14:38.467Z,83.64
2023-12-07T20:19:42.588Z,84.43
2023-12-07T20:24:48.445Z,84.64
2023-12-07T20:29:52.981Z,85.35
2023-12-07T20:34:56.911Z,84.88
2023-12-07T20:40:03.644Z,84.67
2023-12-07T20:45:08.502Z,85.05
2023-12-07T20:50:15.211Z,85.20
2023-12-07T20:55:20.969Z,85.44
2023-12-07T21:00:25.272Z,85.76
2023-12-07T21:05:29.692Z,88.35
2023-12-07T21:10:36.224Z,88.32
2023-12-07T21:15:40.358Z,88.61
2023-12-07T21:20:44.951Z,88.59
2023-12-07T21:25:51.059Z,88.10
2023-12-07T21:30:55.273Z,86.95
2023-12-07T21:35:59.716Z,87.44
2023-12-07T21:41:05.389Z,87.85
2023-12-07T21:46:09.335Z,87.89
2023-12-07T21:51:13.574Z,88.46
2023-12-07T21:56:19.079Z,87.96
2023-12-07T22:01:23.180Z,87.16
2023-12-07T22:06:27.689Z,86.33
2023-12-07T22:11:33.958Z,86.38
2023-12-07T22:16:43.052Z,86.88
2023-12-07T22:21:47.382Z,88.21
2023-12-07T22:26:54.003Z,88.02
2023-12-07T22:31:59.189Z,87.10
2023-12-07T22:37:03.684Z,88.50
2023-12-07T22:42:10.618Z,89.83
2023-12-07T22:47:14.630Z,90.18
2023-12-07T22:52:18.763Z,92.27
2023-12-07T22:57:24.407Z,91.45
2023-12-07T23:02:30.383Z,90.55
2023-12-07T23:07:34.986Z,89.86
2023-12-07T23:12:40.378Z,89.12
2023-12-07T23:17:44.656Z,88.90
2023-12-07T23:22:48.783Z,88.97
2023-12-07T23:27:54.360Z,89.58
2023-12-07T23:32:58.678Z,89.09
2023-12-07T23:38:04.349Z,92.10
2023-12-07T23:43:10.058Z,91.49
2023-12-07T23:48:14.446Z,90.64
2023-12-07T23:53:18.699Z,88.28
2023-12-07T23:58:24.186Z,88.92
